This is the latest recevied weather packets stored in our database for station/object VA2IEI-13. If no packets are shown the sender has not sent any weather packets the latest 10 day(s).
| Time | Temp. | Humidity | Pressure | Rain* | Wind** | Luminosity | Snow |
|---|---|---|---|---|---|---|---|
| 1777984874 | 12.22° C | 76% | 1003.9 hPa | 0 mm | - | - | - |
| 1777984268 | 12.22° C | 77% | 1004 hPa | 0 mm | - | - | - |
| 1777982456 | 10.56° C | 80% | 1004.3 hPa | 0 mm | - | - | - |
| 1777977021 | 7.22° C | 89% | 1004.2 hPa | 0 mm | - | - | - |
| 1777970433 | 6.11° C | 90% | 1004.8 hPa | 0 mm | - | - | - |
| 1777968621 | 6.11° C | 89% | 1005 hPa | 0 mm | - | - | - |
| 1777966237 | 6.11° C | 88% | 1005.3 hPa | 0 mm | - | - | - |
| 1777965681 | 6.11° C | 88% | 1005.2 hPa | 0 mm | - | - | - |
| 1777965077 | 6.11° C | 87% | 1005.3 hPa | 0 mm | - | - | - |
| 1777957220 | 7.78° C | 85% | 1006.7 hPa | 0 mm | - | - | - |
| 1777956080 | 7.78° C | 84% | 1007.1 hPa | 0 mm | - | - | - |
| 1777949419 | 8.33° C | 81% | 1007.5 hPa | 0 mm | - | - | - |
| 1777948232 | 8.33° C | 81% | 1007.6 hPa | 0 mm | - | - | - |
| 1777945862 | 8.33° C | 81% | 1007.8 hPa | 0 mm | - | - | - |
| 1777945262 | 8.33° C | 82% | 1008 hPa | 0 mm | - | - | - |
| 1777944049 | 7.78° C | 82% | 1008.1 hPa | 0 mm | - | - | - |
| 1777940443 | 8.33° C | 79% | 1007.9 hPa | 0 mm | - | - | - |
| 1777936861 | 11.11° C | 72% | 1007.5 hPa | 0 mm | - | - | - |
| 1777936257 | 11.11° C | 73% | 1007.4 hPa | 0 mm | - | - | - |
| 1777923074 | 8.89° C | 77% | 1007.3 hPa | 0 mm | - | - | - |
| 1777920656 | 8.89° C | 79% | 1007.3 hPa | 0 mm | - | - | - |
| 1777917026 | 8.33° C | 79% | 1007.4 hPa | 0 mm | - | - | - |
| 1777914692 | 6.67° C | 87% | 1007.4 hPa | 0 mm | - | - | - |
| 1777909832 | 3.89° C | 91% | 1007.9 hPa | 1.27 mm | - | - | - |
| 1777909226 | 3.89° C | 90% | 1007.9 hPa | 1.52 mm | - | - | - |
* Rain latest hour (hover to see other rain measurements)
** Current wind speed in m/s (hover to see current wind gust speed)